Time;durP1;ratioP1;P1;durP2;ratioP2;P2;SDS_P1;SDS_P2;PMS_P1;PMS_P2;Temp;Humidity;BMP_temperature;BMP_pressure;BME280_temperature;BME280_humidity;BME280_pressure;Samples;Min_cycle;Max_cycle;Signal;HPM_P1;HPM_P2
2021/11/16 00:00:43;;;;;;;142.55;46.17;;;;;;;0.90;100.00;98500.16;4970803;28;20058;-82
2021/11/16 00:03:10;;;;;;;139.75;42.40;;;;;;;0.94;100.00;98519.16;4954664;28;20050;-83
2021/11/16 00:05:39;;;;;;;132.57;41.35;;;;;;;1.01;100.00;98501.19;4972765;28;20055;-81
2021/11/16 00:08:09;;;;;;;140.32;46.00;;;;;;;0.82;100.00;98508.50;4954272;28;20129;-82
2021/11/16 00:10:38;;;;;;;136.27;44.53;;;;;;;0.77;100.00;98507.56;4954090;28;20054;-82
2021/11/16 00:13:15;;;;;;;135.48;43.83;;;;;;;0.77;100.00;98515.56;4954452;28;20046;-81
2021/11/16 00:15:44;;;;;;;147.27;43.58;;;;;;;0.74;100.00;98508.84;4972643;28;20051;-83
2021/11/16 00:18:13;;;;;;;140.60;43.75;;;;;;;0.82;100.00;98502.34;4954571;28;20081;-83
2021/11/16 00:20:45;;;;;;;143.50;44.88;;;;;;;0.94;100.00;98503.16;4971311;28;20173;-82
2021/11/16 00:23:17;;;;;;;173.85;47.88;;;;;;;0.99;100.00;98504.09;4954292;28;20109;-83
2021/11/16 00:25:51;;;;;;;194.00;48.60;;;;;;;1.03;100.00;98501.78;4970693;28;20043;-82
2021/11/16 00:28:20;;;;;;;155.35;37.97;;;;;;;1.00;100.00;98508.38;4954171;28;20058;-81
2021/11/16 00:30:48;;;;;;;210.40;53.03;;;;;;;0.88;100.00;98510.22;4954348;28;20122;-82
2021/11/16 00:33:16;;;;;;;181.75;47.88;;;;;;;1.09;100.00;98500.81;4954077;28;20122;-80
2021/11/16 00:35:43;;;;;;;157.07;46.42;;;;;;;1.13;100.00;98500.16;4970052;28;20427;-81
2021/11/16 00:38:13;;;;;;;226.60;50.20;;;;;;;1.01;100.00;98491.31;4953946;28;20502;-81
2021/11/16 00:40:43;;;;;;;424.13;54.88;;;;;;;1.09;100.00;98492.81;4954374;28;20411;-81
2021/11/16 00:43:13;;;;;;;402.13;57.28;;;;;;;1.01;100.00;98485.19;4970520;28;20054;-81
2021/11/16 00:45:43;;;;;;;437.25;58.90;;;;;;;1.14;100.00;98490.28;4969702;28;20051;-82
2021/11/16 00:48:11;;;;;;;851.67;66.13;;;;;;;1.09;100.00;98490.16;4953697;28;20057;-81
2021/11/16 00:50:41;;;;;;;828.33;66.18;;;;;;;0.98;100.00;98494.44;4972786;28;20046;-82
2021/11/16 00:53:10;;;;;;;517.13;61.30;;;;;;;0.97;100.00;98502.69;4974616;28;20058;-81
2021/11/16 00:55:38;;;;;;;517.15;57.83;;;;;;;0.91;100.00;98504.44;4955580;28;20106;-81
2021/11/16 00:58:04;;;;;;;551.58;58.70;;;;;;;0.89;100.00;98501.19;4956216;28;20102;-83
2021/11/16 01:00:31;;;;;;;488.15;60.92;;;;;;;0.94;100.00;98495.97;4970126;28;20046;-81
2021/11/16 01:03:00;;;;;;;776.05;69.10;;;;;;;0.63;100.00;98506.97;4953410;28;20054;-83
2021/11/16 01:05:27;;;;;;;640.80;60.05;;;;;;;0.47;100.00;98511.09;4972732;28;20462;-82
2021/11/16 01:07:55;;;;;;;380.27;53.63;;;;;;;0.36;100.00;98500.44;4970936;28;20128;-81
2021/11/16 01:10:24;;;;;;;467.00;55.95;;;;;;;0.37;100.00;98499.38;4945005;29;20054;-82
2021/11/16 01:12:52;;;;;;;365.83;54.55;;;;;;;0.40;100.00;98507.72;4934349;29;20047;-82
2021/11/16 01:15:19;;;;;;;254.88;51.50;;;;;;;0.48;100.00;98501.25;4938374;29;20168;-81
2021/11/16 01:17:47;;;;;;;517.63;57.28;;;;;;;0.41;100.00;98492.56;4934228;29;20095;-81
2021/11/16 01:20:15;;;;;;;240.40;52.42;;;;;;;0.58;100.00;98497.00;4952536;29;20055;-82
2021/11/16 01:22:44;;;;;;;248.05;52.42;;;;;;;0.71;100.00;98495.97;4936391;29;20066;-82
2021/11/16 01:25:12;;;;;;;231.50;51.05;;;;;;;0.73;100.00;98498.38;4935863;29;20428;-82
2021/11/16 01:27:41;;;;;;;235.70;51.92;;;;;;;0.79;100.00;98495.63;4949423;28;20066;-82
2021/11/16 01:30:11;;;;;;;289.15;60.47;;;;;;;0.81;100.00;98482.06;4933402;29;20055;-82
2021/11/16 01:32:46;;;;;;;302.38;65.13;;;;;;;0.79;100.00;98495.63;4950798;29;20409;-82
2021/11/16 01:35:13;;;;;;;263.33;57.93;;;;;;;0.71;100.00;98492.47;4952255;29;20055;-82
2021/11/16 01:37:41;;;;;;;337.95;61.55;;;;;;;0.70;100.00;98493.53;4932964;29;20149;-83
2021/11/16 01:40:16;;;;;;;317.15;56.67;;;;;;;0.63;100.00;98493.63;4950055;29;20090;-82
2021/11/16 01:42:46;;;;;;;401.23;56.10;;;;;;;0.49;100.00;98486.91;4950428;29;20102;-82
2021/11/16 01:45:14;;;;;;;484.33;56.92;;;;;;;0.44;100.00;98484.91;4932468;29;20059;-81
2021/11/16 01:47:43;;;;;;;233.07;55.10;;;;;;;0.50;100.00;98481.34;4950068;28;20047;-82
2021/11/16 01:50:11;;;;;;;206.27;54.30;;;;;;;0.66;100.00;98482.53;4948399;29;20063;-83
2021/11/16 01:52:39;;;;;;;203.93;53.80;;;;;;;0.59;100.00;98479.94;4934264;29;20051;-84
2021/11/16 01:55:08;;;;;;;206.43;55.45;;;;;;;0.65;100.00;98486.22;4955056;29;20111;-82
2021/11/16 01:57:36;;;;;;;195.00;52.35;;;;;;;0.66;100.00;98487.84;4953257;28;20123;-82
2021/11/16 02:00:11;;;;;;;187.65;53.53;;;;;;;0.76;100.00;98477.44;4951586;29;20070;-82
2021/11/16 02:02:38;;;;;;;192.50;53.83;;;;;;;0.73;100.00;98485.88;4955881;28;20059;-82
2021/11/16 02:05:07;;;;;;;198.20;54.65;;;;;;;0.75;100.00;98475.78;4956472;29;20055;-83
2021/11/16 02:07:34;;;;;;;188.60;53.80;;;;;;;0.68;100.00;98480.44;4956284;28;20060;-82
2021/11/16 02:10:02;;;;;;;169.77;51.35;;;;;;;0.37;100.00;98484.22;4953986;29;20069;-82
2021/11/16 02:12:28;;;;;;;160.57;48.85;;;;;;;0.43;100.00;98483.31;4935980;29;20129;-82
2021/11/16 02:14:55;;;;;;;163.07;48.88;;;;;;;0.50;100.00;98480.53;4957460;29;20352;-83
2021/11/16 02:17:22;;;;;;;142.45;46.63;;;;;;;0.74;100.00;98484.03;4940744;28;20047;-82
2021/11/16 02:19:50;;;;;;;151.68;47.20;;;;;;;0.88;100.00;98482.78;4950155;29;20198;-83
2021/11/16 02:22:17;;;;;;;144.50;46.25;;;;;;;0.74;100.00;98487.50;4947730;29;20053;-82
2021/11/16 02:24:46;;;;;;;139.65;44.13;;;;;;;0.96;100.00;98477.06;4948729;29;20106;-82
2021/11/16 02:27:13;;;;;;;141.65;44.72;;;;;;;1.16;100.00;98480.22;4943283;29;20365;-84
2021/11/16 02:29:40;;;;;;;141.48;45.15;;;;;;;1.19;100.00;98474.38;4957527;28;20056;-83
2021/11/16 02:32:08;;;;;;;136.95;46.00;;;;;;;1.24;100.00;98471.81;4953147;29;20444;-84
2021/11/16 02:34:34;;;;;;;151.90;47.38;;;;;;;1.34;100.00;98479.25;4936772;29;20063;-81
2021/11/16 02:37:01;;;;;;;154.35;46.55;;;;;;;1.22;100.00;98474.72;4934700;29;20463;-82
2021/11/16 02:39:28;;;;;;;169.82;46.75;;;;;;;1.10;100.00;98468.63;4951031;28;20055;-82
2021/11/16 02:41:56;;;;;;;159.20;46.80;;;;;;;1.27;100.00;98472.19;4935209;29;20051;-82
2021/11/16 02:44:23;;;;;;;189.38;47.45;;;;;;;1.35;100.00;98463.00;4935367;29;20059;-81
2021/11/16 02:46:51;;;;;;;182.55;47.55;;;;;;;1.47;100.00;98471.00;4953047;29;20051;-82
2021/11/16 02:49:20;;;;;;;220.13;49.47;;;;;;;1.23;100.00;98471.03;4953209;28;20151;-82
2021/11/16 02:51:46;;;;;;;352.27;47.05;;;;;;;1.37;100.00;98458.22;4952924;29;20062;-82
2021/11/16 02:54:17;;;;;;;342.52;47.90;;;;;;;1.26;100.00;98462.53;4953242;29;20063;-82
2021/11/16 02:56:45;;;;;;;224.55;46.83;;;;;;;1.31;100.00;98450.38;4953477;29;20148;-81
2021/11/16 02:59:13;;;;;;;235.02;49.35;;;;;;;1.44;100.00;98450.94;4935980;29;20150;-80
2021/11/16 03:01:41;;;;;;;248.75;49.55;;;;;;;1.49;100.00;98461.69;4951577;29;20051;-81
2021/11/16 03:04:08;;;;;;;426.95;49.55;;;;;;;1.49;100.00;98456.38;4952630;29;20479;-80
2021/11/16 03:06:35;;;;;;;292.58;46.78;;;;;;;1.49;100.00;98451.03;4935511;29;20507;-81
2021/11/16 03:09:02;;;;;;;336.27;48.50;;;;;;;1.25;100.00;98450.28;4952682;28;20119;-81
2021/11/16 03:11:30;;;;;;;604.47;56.70;;;;;;;1.35;100.00;98452.31;4935060;29;20074;-82
2021/11/16 03:13:57;;;;;;;401.33;50.58;;;;;;;1.35;100.00;98440.84;4949926;28;20188;-82
2021/11/16 03:16:24;;;;;;;321.25;48.35;;;;;;;1.49;100.00;98436.88;4934875;29;20156;-81
2021/11/16 03:18:53;;;;;;;276.92;48.15;;;;;;;1.65;100.00;98449.47;4952397;28;20127;-81
2021/11/16 03:21:24;;;;;;;357.77;48.38;;;;;;;1.66;100.00;98451.06;4952374;29;20293;-81
2021/11/16 03:23:54;;;;;;;384.15;49.63;;;;;;;1.60;100.00;98447.50;4952581;29;20106;-81
2021/11/16 03:26:24;;;;;;;310.33;47.60;;;;;;;1.66;100.00;98459.91;4956099;29;20106;-83
2021/11/16 03:28:51;;;;;;;561.45;50.78;;;;;;;1.66;100.00;98459.09;4958674;28;20130;-82
2021/11/16 03:31:32;;;;;;;268.58;46.70;;;;;;;1.79;100.00;98456.94;4937831;29;20357;-81
2021/11/16 03:33:59;;;;;;;384.95;46.42;;;;;;;1.70;100.00;98455.69;4951981;29;20137;-82
2021/11/16 03:36:26;;;;;;;318.08;45.50;;;;;;;1.73;100.00;98441.88;4933945;29;20077;-82
2021/11/16 03:38:56;;;;;;;328.40;42.97;;;;;;;1.57;100.00;98447.19;4951381;28;20074;-82
2021/11/16 03:41:23;;;;;;;163.48;39.50;;;;;;;1.63;100.00;98446.22;4951031;29;20146;-80
2021/11/16 03:43:51;;;;;;;180.38;41.72;;;;;;;1.69;100.00;98447.94;4951361;29;20446;-82
2021/11/16 03:46:18;;;;;;;228.63;40.67;;;;;;;1.65;100.00;98450.25;4950915;29;20090;-81
2021/11/16 03:48:45;;;;;;;174.95;40.63;;;;;;;1.72;100.00;98434.94;4951153;28;20063;-81
2021/11/16 03:51:12;;;;;;;170.13;41.83;;;;;;;1.71;100.00;98448.50;4935223;29;20428;-82
2021/11/16 03:53:40;;;;;;;173.55;39.10;;;;;;;1.78;100.00;98460.66;4954206;29;20090;-81
2021/11/16 03:56:07;;;;;;;166.65;39.45;;;;;;;1.69;100.00;98453.28;4934475;29;20468;-81
2021/11/16 03:58:34;;;;;;;132.05;38.13;;;;;;;1.79;100.00;98456.94;4951996;28;20170;-80
2021/11/16 04:01:05;;;;;;;113.88;37.90;;;;;;;1.85;100.00;98447.19;4934599;29;20047;-80
2021/11/16 04:03:34;;;;;;;147.13;39.90;;;;;;;1.97;100.00;98445.25;4951929;29;20057;-81
2021/11/16 04:06:03;;;;;;;122.55;39.88;;;;;;;2.11;100.00;98449.25;4953842;29;20051;-81
2021/11/16 04:08:30;;;;;;;116.97;39.63;;;;;;;2.17;100.00;98437.59;4935737;29;20067;-81
2021/11/16 04:10:57;;;;;;;152.10;38.97;;;;;;;2.17;100.00;98440.28;4937805;29;20052;-81
2021/11/16 04:13:24;;;;;;;138.18;39.03;;;;;;;2.23;100.00;98441.16;4950289;29;20051;-81
2021/11/16 04:15:51;;;;;;;148.10;39.55;;;;;;;2.10;100.00;98428.94;4951009;29;20146;-83
2021/11/16 04:18:20;;;;;;;141.18;37.45;;;;;;;2.20;100.00;98431.78;4950451;28;20059;-80
2021/11/16 04:20:49;;;;;;;110.72;37.47;;;;;;;2.38;100.00;98438.75;4952478;29;20380;-81
2021/11/16 04:23:17;;;;;;;118.32;39.08;;;;;;;2.44;100.00;98422.56;4954357;29;20484;-81
2021/11/16 04:25:45;;;;;;;115.78;39.25;;;;;;;2.35;100.00;98424.00;4952109;28;20484;-81
2021/11/16 04:28:14;;;;;;;101.70;37.33;;;;;;;2.53;100.00;98423.78;4951582;28;20484;-80
2021/11/16 04:30:43;;;;;;;101.63;36.05;;;;;;;2.63;100.00;98425.81;4951974;29;20051;-80
2021/11/16 04:33:11;;;;;;;101.45;35.78;;;;;;;2.27;100.00;98418.28;4951301;29;20197;-80
2021/11/16 04:35:38;;;;;;;101.20;37.05;;;;;;;2.37;100.00;98424.59;4935370;29;20055;-81
2021/11/16 04:38:07;;;;;;;96.80;36.10;;;;;;;2.37;100.00;98421.94;4952493;28;20062;-82
2021/11/16 04:40:40;;;;;;;95.65;36.85;;;;;;;2.50;100.00;98426.94;4937432;29;20137;-82
2021/11/16 04:43:10;;;;;;;94.75;37.75;;;;;;;2.59;100.00;98410.47;4954001;29;20055;-81
2021/11/16 04:45:39;;;;;;;94.72;35.40;;;;;;;2.60;100.00;98418.28;4954794;29;20455;-81
2021/11/16 05:04:03;;;;;;;96.57;37.33;;;;;;;2.78;100.00;98404.66;5011012;28;20076;-78
2021/11/16 05:06:33;;;;;;;93.47;36.88;;;;;;;2.82;100.00;98399.59;5011014;28;20046;-78
2021/11/16 05:09:00;;;;;;;93.93;36.75;;;;;;;2.75;100.00;98382.94;5012942;28;20099;-78
2021/11/16 05:11:26;;;;;;;100.65;38.30;;;;;;;2.50;100.00;98397.53;5010451;28;20077;-78
2021/11/16 05:13:54;;;;;;;91.13;35.03;;;;;;;2.60;100.00;98396.06;5009782;28;20096;-79
2021/11/16 05:16:23;;;;;;;101.70;36.65;;;;;;;2.77;100.00;98391.50;5010736;28;20199;-79
2021/11/16 05:18:53;;;;;;;103.20;37.17;;;;;;;2.77;100.00;98392.31;5009262;28;20494;-78
2021/11/16 05:21:19;;;;;;;94.72;36.33;;;;;;;2.69;100.00;98381.22;5011625;28;20465;-79
2021/11/16 05:24:04;;;;;;;98.57;35.60;;;;;;;2.48;100.00;98380.94;5011469;28;20108;-81
2021/11/16 05:26:32;;;;;;;99.65;36.20;;;;;;;2.43;100.00;98386.22;5036511;28;20084;-80
2021/11/16 05:28:59;;;;;;;110.45;36.65;;;;;;;2.56;100.00;98384.25;5033453;28;20053;-79
2021/11/16 05:31:26;;;;;;;96.55;36.22;;;;;;;2.73;100.00;98385.03;5011459;28;20087;-76
2021/11/16 05:33:55;;;;;;;104.72;35.88;;;;;;;2.98;100.00;98394.22;5029308;28;20057;-78
2021/11/16 05:36:22;;;;;;;108.82;36.50;;;;;;;2.92;100.00;98381.00;5029618;28;20057;-77
2021/11/16 05:38:50;;;;;;;91.35;34.47;;;;;;;3.01;100.00;98374.19;4998733;28;20116;-78
2021/11/16 05:41:18;;;;;;;101.00;35.03;;;;;;;3.15;100.00;98378.91;4994925;28;20054;-79
2021/11/16 05:43:45;;;;;;;88.75;32.78;;;;;;;3.25;100.00;98378.25;5013384;28;20800;-79
2021/11/16 05:46:19;;;;;;;93.95;35.13;;;;;;;3.35;100.00;98378.38;4996808;28;20049;-79
2021/11/16 05:48:53;;;;;;;91.53;34.40;;;;;;;3.25;100.00;98364.06;5012981;28;20050;-79
2021/11/16 05:51:23;;;;;;;83.15;33.55;;;;;;;3.13;100.00;98377.56;5011729;28;20506;-78
2021/11/16 05:53:56;;;;;;;85.82;32.33;;;;;;;3.25;100.00;98377.44;5012902;28;20143;-77
2021/11/16 05:56:31;;;;;;;90.30;32.35;;;;;;;3.22;100.00;98365.38;5000401;28;20103;-78
2021/11/16 05:58:59;;;;;;;86.47;31.83;;;;;;;3.20;100.00;98378.16;4993293;28;20054;-77
2021/11/16 06:01:30;;;;;;;92.25;34.33;;;;;;;3.28;100.00;98372.38;5009979;28;20089;-79
2021/11/16 06:03:58;;;;;;;89.72;32.90;;;;;;;3.43;100.00;98369.88;5023124;28;20049;-77
2021/11/16 06:06:28;;;;;;;87.25;32.60;;;;;;;3.89;100.00;98376.53;5032437;28;20464;-79
2021/11/16 06:08:57;;;;;;;89.32;33.22;;;;;;;3.78;100.00;98375.63;5014055;28;20103;-77
2021/11/16 06:11:24;;;;;;;77.45;31.30;;;;;;;3.66;100.00;98383.00;5011442;28;20119;-77
2021/11/16 06:13:53;;;;;;;78.63;29.90;;;;;;;3.71;100.00;98379.56;5029667;28;20402;-80
2021/11/16 06:16:23;;;;;;;70.55;29.20;;;;;;;3.48;100.00;98385.19;5029936;28;20092;-77
2021/11/16 06:19:03;;;;;;;71.82;30.27;;;;;;;3.43;100.00;98387.81;5032348;28;20057;-78
2021/11/16 06:21:30;;;;;;;76.13;29.45;;;;;;;3.45;100.00;98385.69;5010443;28;20065;-76
2021/11/16 06:23:58;;;;;;;74.38;29.77;;;;;;;3.47;100.00;98392.41;5045865;28;20136;-78
2021/11/16 06:26:27;;;;;;;77.85;32.47;;;;;;;3.57;100.00;98392.53;5043493;28;20049;-78
2021/11/16 06:28:54;;;;;;;84.38;33.17;;;;;;;3.63;100.00;98386.19;5042711;28;20480;-77
2021/11/16 06:31:23;;;;;;;84.07;32.88;;;;;;;3.64;100.00;98393.13;5032888;28;20107;-78
2021/11/16 06:33:50;;;;;;;82.65;33.33;;;;;;;3.59;100.00;98397.63;5030208;28;20049;-77
2021/11/16 06:36:18;;;;;;;83.30;33.10;;;;;;;3.53;100.00;98398.66;5030510;28;20091;-79
2021/11/16 06:38:45;;;;;;;81.43;33.65;;;;;;;3.47;100.00;98387.06;5031573;28;20085;-79
2021/11/16 06:41:11;;;;;;;78.25;31.60;;;;;;;3.41;100.00;98404.13;5034743;28;20100;-79
2021/11/16 06:43:38;;;;;;;85.13;34.33;;;;;;;3.57;100.00;98410.44;5034626;28;20056;-79
2021/11/16 06:46:07;;;;;;;88.07;35.22;;;;;;;3.64;100.00;98395.81;5033771;28;20049;-79
2021/11/16 06:48:35;;;;;;;88.03;35.15;;;;;;;3.67;100.00;98399.84;5037942;28;20125;-79
2021/11/16 06:51:01;;;;;;;83.40;34.20;;;;;;;3.55;100.00;98391.97;5002151;28;20080;-79
2021/11/16 06:53:34;;;;;;;83.90;33.72;;;;;;;3.55;100.00;98410.72;5017971;28;20088;-79
2021/11/16 06:56:04;;;;;;;84.35;32.42;;;;;;;3.71;100.00;98399.13;5037266;28;20056;-79
2021/11/16 06:58:34;;;;;;;88.85;33.72;;;;;;;3.71;100.00;98404.47;5037184;28;20045;-78
2021/11/16 07:01:02;;;;;;;88.05;35.33;;;;;;;3.75;100.00;98396.72;5031910;28;20062;-78
2021/11/16 07:03:29;;;;;;;82.15;33.35;;;;;;;3.85;100.00;98401.38;5033889;28;20100;-78
2021/11/16 07:05:59;;;;;;;87.60;34.72;;;;;;;3.85;100.00;98391.47;5033668;28;20501;-79
2021/11/16 07:08:37;;;;;;;92.88;34.53;;;;;;;3.93;100.00;98391.03;5033121;28;20318;-78
2021/11/16 07:11:25;;;;;;;88.00;35.10;;;;;;;4.20;100.00;98394.50;5016469;28;20049;-78
2021/11/16 07:13:57;;;;;;;80.82;33.08;;;;;;;4.12;100.00;98394.97;5033604;28;20049;-78
2021/11/16 07:16:27;;;;;;;84.32;34.40;;;;;;;4.15;100.00;98386.41;5034485;28;20072;-78
2021/11/16 07:18:56;;;;;;;81.85;34.33;;;;;;;4.30;100.00;98405.31;5034115;28;20505;-78
2021/11/16 07:21:26;;;;;;;87.47;34.47;;;;;;;4.38;100.00;98401.34;5034945;28;20296;-78
2021/11/16 07:24:05;;;;;;;82.72;33.95;;;;;;;4.48;100.00;98404.09;5016209;28;20045;-78
2021/11/16 07:26:39;;;;;;;80.97;32.47;;;;;;;4.36;100.00;98396.22;5034949;28;20053;-78
2021/11/16 07:29:08;;;;;;;80.75;30.58;;;;;;;4.40;100.00;98385.81;5034008;28;20258;-77
2021/11/16 07:31:37;;;;;;;84.05;31.40;;;;;;;4.54;100.00;98384.31;5032525;28;20080;-78
2021/11/16 07:34:20;;;;;;;73.70;30.55;;;;;;;4.59;100.00;98383.53;5015546;28;20049;-78
2021/11/16 07:37:12;;;;;;;80.45;31.15;;;;;;;4.78;100.00;98382.84;5032778;28;20090;-78
2021/11/16 07:39:49;;;;;;;80.90;33.67;;;;;;;4.82;100.00;98383.97;5032069;28;20517;-78
2021/11/16 07:42:18;;;;;;;75.35;31.40;;;;;;;4.96;100.00;98384.28;5032221;28;20052;-77
2021/11/16 07:45:11;;;;;;;73.45;32.47;;;;;;;4.96;100.00;98373.56;5031445;28;20433;-77
2021/11/16 07:47:47;;;;;;;70.15;30.17;;;;;;;4.93;100.00;98374.06;5033484;28;20049;-78
2021/11/16 07:50:49;;;;;;;68.63;31.02;;;;;;;4.98;100.00;98376.81;5032804;28;20489;-78
2021/11/16 07:53:15;;;;;;;71.80;30.08;;;;;;;4.96;100.00;98376.25;5028456;28;20083;-79
2021/11/16 07:55:44;;;;;;;74.85;32.00;;;;;;;5.19;100.00;98375.03;5014930;28;20481;-78
2021/11/16 07:58:13;;;;;;;76.05;31.55;;;;;;;5.27;100.00;98375.31;5032434;28;20049;-78
2021/11/16 08:00:43;;;;;;;69.00;29.83;;;;;;;5.21;100.00;98371.00;5032395;28;20057;-78
2021/11/16 08:03:16;;;;;;;73.30;30.10;;;;;;;5.29;100.00;98375.06;5031407;28;20331;-78
2021/11/16 08:05:49;;;;;;;68.40;28.38;;;;;;;5.37;100.00;98367.28;5015463;28;20115;-78
2021/11/16 08:10:56;;;;;;;67.38;29.25;;;;;;;5.44;100.00;98375.94;5031867;28;20330;-79
2021/11/16 08:13:29;;;;;;;65.35;29.77;;;;;;;5.46;100.00;98375.66;5031518;28;20064;-78
2021/11/16 08:16:12;;;;;;;66.95;30.33;;;;;;;5.50;100.00;98360.63;5031777;28;20049;-78
2021/11/16 08:18:48;;;;;;;67.85;29.45;;;;;;;5.47;100.00;98370.00;5014600;28;20096;-78
2021/11/16 08:21:17;;;;;;;65.63;29.65;;;;;;;5.58;100.00;98370.84;5032536;28;20456;-78
2021/11/16 08:24:00;;;;;;;67.30;28.42;;;;;;;5.56;100.00;98370.31;5013102;28;20080;-79
2021/11/16 08:26:32;;;;;;;68.07;29.25;;;;;;;5.65;100.00;98366.84;5035214;28;20115;-77
2021/11/16 08:28:59;;;;;;;67.40;29.75;;;;;;;5.53;100.00;98365.47;5031505;28;20045;-78
2021/11/16 08:31:32;;;;;;;66.63;29.38;;;;;;;5.77;100.00;98371.19;5031507;28;20080;-78
2021/11/16 08:34:00;;;;;;;71.15;30.45;;;;;;;5.76;100.00;98364.19;5032398;28;20049;-78
2021/11/16 08:36:40;;;;;;;76.60;31.67;;;;;;;5.85;100.00;98373.38;5033721;28;20486;-77
2021/11/16 08:39:09;;;;;;;65.90;28.77;;;;;;;5.90;100.00;98357.25;5033710;28;20073;-78
2021/11/16 08:41:38;;;;;;;69.70;30.73;;;;;;;5.78;100.00;98357.47;5033533;28;20049;-78
2021/11/16 08:44:21;;;;;;;62.38;29.38;;;;;;;5.96;100.00;98354.28;5030984;28;20045;-79
2021/11/16 08:46:50;;;;;;;69.30;30.05;;;;;;;6.10;100.00;98366.16;5031761;28;20057;-78
2021/11/16 08:49:35;;;;;;;71.47;30.00;;;;;;;6.11;100.00;98365.09;5032319;28;20054;-78
2021/11/16 08:52:17;;;;;;;69.38;30.25;;;;;;;6.13;100.00;98370.19;5035376;28;20065;-78
2021/11/16 08:54:58;;;;;;;71.90;30.30;;;;;;;6.24;100.00;98361.88;5003898;28;20041;-78
2021/11/16 08:57:30;;;;;;;65.68;28.27;;;;;;;6.25;100.00;98368.84;5019350;28;20037;-78
2021/11/16 08:59:58;;;;;;;67.82;30.02;;;;;;;6.34;100.00;98362.94;5019668;28;20056;-78
2021/11/16 09:02:29;;;;;;;68.22;30.65;;;;;;;6.48;100.00;98356.72;5036606;28;20053;-79
2021/11/16 09:04:56;;;;;;;71.03;31.15;;;;;;;6.58;100.00;98362.09;5019345;28;20076;-78
2021/11/16 09:07:29;;;;;;;71.05;31.20;;;;;;;6.54;100.00;98357.53;5037802;28;20140;-79
2021/11/16 09:09:59;;;;;;;64.65;30.02;;;;;;;6.80;100.00;98359.09;5038168;28;20513;-78
2021/11/16 09:12:42;;;;;;;64.25;29.58;;;;;;;7.03;100.00;98344.22;5036956;28;20045;-78
2021/11/16 09:15:12;;;;;;;64.05;29.15;;;;;;;7.18;100.00;98349.56;5037628;28;20053;-78
2021/11/16 09:17:40;;;;;;;61.50;29.30;;;;;;;6.72;100.00;98349.72;5020197;28;20049;-79
2021/11/16 09:20:25;;;;;;;62.28;28.85;;;;;;;6.90;100.00;98349.13;5019236;28;20049;-78
2021/11/16 09:22:54;;;;;;;67.78;31.45;;;;;;;7.30;100.00;98350.84;5032792;28;20050;-78
2021/11/16 09:25:29;;;;;;;63.30;28.67;;;;;;;7.34;100.00;98343.03;5030903;28;20050;-78
2021/11/16 09:28:12;;;;;;;61.70;30.08;;;;;;;7.72;100.00;98342.28;5014974;28;20050;-78
2021/11/16 09:30:43;;;;;;;59.05;29.55;;;;;;;7.96;100.00;98339.72;5031962;28;20053;-79
2021/11/16 09:33:20;;;;;;;59.70;29.92;;;;;;;8.11;100.00;98334.19;5034423;28;20111;-79
2021/11/16 09:35:58;;;;;;;69.05;30.63;;;;;;;8.11;100.00;98326.94;5033951;28;20517;-79
2021/11/16 09:38:52;;;;;;;61.97;30.65;;;;;;;8.47;100.00;98337.44;5033060;28;20081;-79
2021/11/16 09:41:31;;;;;;;55.83;27.92;;;;;;;8.55;100.00;98321.44;5015985;28;20057;-79
2021/11/16 09:44:05;;;;;;;56.05;27.83;;;;;;;8.33;100.00;98323.00;5031893;28;20045;-78
2021/11/16 09:46:46;;;;;;;59.25;28.40;;;;;;;8.46;100.00;98323.16;5014897;28;20050;-78
2021/11/16 09:49:16;;;;;;;56.53;27.50;;;;;;;8.48;100.00;98301.28;5032877;28;20103;-79
2021/11/16 09:52:05;;;;;;;50.42;25.48;;;;;;;8.47;100.00;98322.06;5032092;28;20076;-78
2021/11/16 09:54:51;;;;;;;49.70;25.00;;;;;;;8.52;100.00;98318.50;5034456;28;20412;-78
2021/11/16 09:57:38;;;;;;;45.20;23.15;;;;;;;8.57;100.00;98313.84;5035565;28;20057;-78
2021/11/16 10:00:09;;;;;;;46.47;23.10;;;;;;;8.63;100.00;98320.03;5030638;28;20045;-78
2021/11/16 10:02:41;;;;;;;49.75;23.58;;;;;;;8.75;100.00;98315.84;5030826;28;20111;-78
2021/11/16 10:05:21;;;;;;;47.90;23.15;;;;;;;8.82;100.00;98320.09;5014074;28;20049;-77
2021/11/16 10:07:57;;;;;;;42.35;21.65;;;;;;;8.81;100.00;98308.50;5031375;28;20119;-77
2021/11/16 10:10:30;;;;;;;43.28;22.23;;;;;;;8.68;100.00;98309.16;5031119;28;20072;-78
2021/11/16 10:13:12;;;;;;;44.67;22.13;;;;;;;8.81;100.00;98300.38;5029328;28;20377;-78
2021/11/16 10:15:44;;;;;;;42.65;22.55;;;;;;;8.77;100.00;98310.16;5031249;28;20052;-78
2021/11/16 10:18:15;;;;;;;45.60;22.52;;;;;;;8.92;100.00;98292.97;5030542;28;20053;-79
2021/11/16 10:20:43;;;;;;;41.95;22.58;;;;;;;8.93;100.00;98294.59;5030558;28;20452;-78
2021/11/16 10:23:28;;;;;;;44.03;23.17;;;;;;;9.27;100.00;98298.75;5014704;28;20049;-78
2021/11/16 10:25:56;;;;;;;40.92;21.50;;;;;;;9.64;100.00;98297.97;5035743;28;20052;-78
2021/11/16 10:28:23;;;;;;;42.42;21.88;;;;;;;10.28;100.00;98291.06;5034919;28;20053;-78
2021/11/16 10:30:51;;;;;;;42.00;21.00;;;;;;;11.19;100.00;98279.31;5035633;28;20493;-79
2021/11/16 10:33:24;;;;;;;36.55;20.15;;;;;;;11.94;100.00;98279.56;5035414;28;20057;-78
2021/11/16 10:35:52;;;;;;;37.90;19.75;;;;;;;12.29;100.00;98262.38;5035677;28;20192;-78
2021/11/16 10:38:28;;;;;;;36.22;19.88;;;;;;;12.50;100.00;98274.34;5017848;28;20100;-78
2021/11/16 10:40:57;;;;;;;36.53;19.48;;;;;;;12.84;100.00;98275.63;5034729;28;20444;-78
2021/11/16 10:43:39;;;;;;;35.35;19.33;;;;;;;12.98;100.00;98277.09;5034545;28;20231;-79
2021/11/16 10:46:07;;;;;;;34.63;19.35;;;;;;;13.09;100.00;98272.22;5035453;28;20051;-79
2021/11/16 10:48:37;;;;;;;32.83;19.02;;;;;;;11.70;100.00;98263.56;5035983;28;20053;-78
2021/11/16 10:51:09;;;;;;;31.48;19.08;;;;;;;13.65;100.00;98263.22;5034496;28;20429;-79
2021/11/16 10:53:36;;;;;;;34.28;19.50;;;;;;;14.91;100.00;98248.09;5017757;28;20057;-79
2021/11/16 10:56:07;;;;;;;28.90;17.15;;;;;;;16.65;80.65;98239.81;5035898;28;20057;-79
2021/11/16 11:01:24;;;;;;;30.92;18.52;;;;;;;14.62;87.92;98229.78;4885851;29;20064;-79
2021/11/16 11:03:56;;;;;;;28.17;17.48;;;;;;;14.14;97.88;98242.88;4898518;29;20081;-78
2021/11/16 11:06:24;;;;;;;33.85;19.35;;;;;;;14.03;100.00;98245.13;4882042;29;20093;-79
2021/11/16 11:08:56;;;;;;;31.23;18.40;;;;;;;14.31;100.00;98242.84;4900068;29;20529;-79
2021/11/16 11:11:32;;;;;;;31.80;18.02;;;;;;;13.42;100.00;98238.06;4900237;29;20452;-79
2021/11/16 11:14:05;;;;;;;30.80;18.85;;;;;;;15.52;99.20;98233.81;4915035;29;20067;-80
2021/11/16 11:16:37;;;;;;;29.00;18.15;;;;;;;15.81;71.46;98234.88;4899780;29;20112;-80
2021/11/16 11:19:09;;;;;;;30.90;18.30;;;;;;;17.27;66.77;98232.09;4916628;29;20497;-80
2021/11/16 11:21:39;;;;;;;26.80;18.08;;;;;;;16.54;65.86;98236.72;4916558;29;20060;-80
2021/11/16 11:24:20;;;;;;;28.67;17.95;;;;;;;15.36;69.64;98238.22;4899991;29;20075;-79
2021/11/16 11:26:56;;;;;;;28.83;18.20;;;;;;;16.42;65.60;98239.41;4900214;29;20080;-80
2021/11/16 11:29:34;;;;;;;;;;;;;;;16.52;60.50;98241.75;4917528;29;20056;-79
2021/11/16 11:32:16;;;;;;;28.80;17.77;;;;;;;16.83;61.30;98239.28;4916534;29;19927;-80
2021/11/16 11:35:01;;;;;;;28.85;17.77;;;;;;;16.11;65.10;98247.28;4915374;29;20430;-79
2021/11/16 11:37:48;;;;;;;46.42;25.02;;;;;;;16.55;73.83;98241.06;4917291;29;20055;-79
2021/11/16 11:40:18;;;;;;;45.17;25.50;;;;;;;16.65;71.47;98248.03;4916204;29;20048;-79
2021/11/16 11:42:49;;;;;;;45.22;24.88;;;;;;;15.27;78.31;98242.13;4899061;29;20260;-79
2021/11/16 11:45:38;;;;;;;51.08;26.27;;;;;;;12.58;100.00;98237.47;4914844;29;20055;-78
2021/11/16 11:48:26;;;;;;;49.45;26.95;;;;;;;11.28;100.00;98234.91;4917950;29;20056;-80
2021/11/16 11:51:00;;;;;;;53.45;28.13;;;;;;;10.06;100.00;98253.00;4919819;29;20111;-80
2021/11/16 11:53:30;;;;;;;54.58;28.75;;;;;;;10.10;100.00;98243.16;4918089;29;20077;-79